Aviation Digital Data Service (ADDS)

Output produced by METARs form (1809 UTC 14 August 2018)
found at http://www.aviationweather.gov/adds/metars/
 
GQPA 141800Z 28008KT 8000 NSC 38/// Q1014
GQNI 141500Z 36008KT 9999 BKN040TCU 30/23 Q1015
GQPP 141800Z 29012KT 8000 NSC 25/20 Q1015 NOSIG
TAF GQPP 141700Z 1418/1518 29010KT 7000 NSC 
     PROB40 
     TEMPO 1502/1508 3500 BR BKN005